createdAt,value
2018-05-09T00:01:16.319Z,2.90
2018-05-09T00:03:43.883Z,3.07
2018-05-09T00:06:11.448Z,2.70
2018-05-09T00:08:39.005Z,2.87
2018-05-09T00:11:06.600Z,2.80
2018-05-09T00:13:34.918Z,2.83
2018-05-09T00:16:02.463Z,2.87
2018-05-09T00:18:30.031Z,2.93
2018-05-09T00:20:57.693Z,3.20
2018-05-09T00:23:25.269Z,3.53
2018-05-09T00:25:52.848Z,3.00
2018-05-09T00:28:20.411Z,3.30
2018-05-09T00:30:47.989Z,3.07
2018-05-09T00:33:15.564Z,3.57
2018-05-09T00:35:43.879Z,3.43
2018-05-09T00:38:11.440Z,3.50
2018-05-09T00:40:39.172Z,3.30
2018-05-09T00:43:07.522Z,3.60
2018-05-09T00:45:35.095Z,3.60
2018-05-09T00:48:02.653Z,3.80
2018-05-09T00:50:30.220Z,4.13
2018-05-09T00:52:57.783Z,4.10
2018-05-09T00:55:26.121Z,4.10
2018-05-09T00:57:53.718Z,4.17
2018-05-09T01:00:21.273Z,4.43
2018-05-09T01:02:48.850Z,4.20
2018-05-09T01:05:17.250Z,4.87
2018-05-09T01:07:44.803Z,4.50
2018-05-09T01:10:12.403Z,4.67
2018-05-09T01:12:39.967Z,4.70
2018-05-09T01:15:07.561Z,4.63
2018-05-09T01:17:35.099Z,4.77
2018-05-09T01:20:02.717Z,4.50
2018-05-09T01:22:30.288Z,4.40
2018-05-09T01:24:58.006Z,4.43
2018-05-09T01:27:26.313Z,4.67
2018-05-09T01:29:53.887Z,4.70
2018-05-09T01:32:21.448Z,4.43
2018-05-09T01:34:49.020Z,4.73
2018-05-09T01:37:16.584Z,4.67
2018-05-09T01:39:44.139Z,4.27
2018-05-09T01:42:11.696Z,4.17
2018-05-09T01:44:39.247Z,4.03
2018-05-09T01:47:06.806Z,4.33
2018-05-09T01:49:34.378Z,4.27
2018-05-09T01:52:01.913Z,3.80
2018-05-09T01:54:29.484Z,4.20
2018-05-09T01:56:57.075Z,4.17
2018-05-09T01:59:24.655Z,4.00
2018-05-09T02:01:52.220Z,3.97
2018-05-09T02:04:20.638Z,4.13
2018-05-09T02:06:48.204Z,3.70
2018-05-09T02:09:15.763Z,3.70
2018-05-09T02:11:43.331Z,3.77
2018-05-09T02:14:10.878Z,3.77
2018-05-09T02:16:38.652Z,4.20
2018-05-09T02:19:06.192Z,3.60
2018-05-09T02:21:33.773Z,3.93
2018-05-09T02:24:01.412Z,3.70
2018-05-09T02:26:28.995Z,4.20
2018-05-09T02:28:56.565Z,3.70
2018-05-09T02:31:24.127Z,3.87
2018-05-09T02:33:51.919Z,4.03
2018-05-09T02:36:19.432Z,3.97
2018-05-09T02:38:46.999Z,3.90
2018-05-09T02:41:14.555Z,3.77
2018-05-09T02:43:42.143Z,4.50
2018-05-09T02:46:09.693Z,4.23
2018-05-09T02:48:37.253Z,3.67
2018-05-09T02:51:04.838Z,9.03
2018-05-09T02:53:32.403Z,7.67
2018-05-09T02:55:59.972Z,5.63
2018-05-09T02:58:27.527Z,5.80
2018-05-09T03:00:55.881Z,5.10
2018-05-09T03:03:23.433Z,5.20
2018-05-09T03:05:50.993Z,5.73
2018-05-09T03:08:18.540Z,4.83
2018-05-09T03:10:46.131Z,4.53
2018-05-09T03:13:13.684Z,4.70
2018-05-09T03:15:41.252Z,3.90
2018-05-09T03:18:08.810Z,4.33
2018-05-09T03:20:36.427Z,4.37
2018-05-09T03:23:03.963Z,4.50
2018-05-09T03:25:32.289Z,4.20
2018-05-09T03:27:59.836Z,4.27
2018-05-09T03:30:27.420Z,4.50
2018-05-09T03:32:55.151Z,4.30
2018-05-09T03:35:22.701Z,4.37
2018-05-09T03:37:50.285Z,4.23
2018-05-09T03:40:17.839Z,4.30
2018-05-09T03:42:45.417Z,4.33
2018-05-09T03:45:12.990Z,4.40
2018-05-09T03:47:40.545Z,4.13
2018-05-09T03:50:08.117Z,4.53
2018-05-09T03:52:35.703Z,4.40
2018-05-09T03:55:04.004Z,4.03
2018-05-09T03:57:31.612Z,4.53
2018-05-09T03:59:59.916Z,4.13
2018-05-09T04:02:43.888Z,4.50
2018-05-09T04:05:23.327Z,4.63
2018-05-09T04:08:02.712Z,4.70
2018-05-09T04:10:30.292Z,4.87
2018-05-09T04:12:58.743Z,4.63
2018-05-09T04:15:26.292Z,5.00
2018-05-09T04:17:54.056Z,4.53
2018-05-09T04:20:21.591Z,4.63
2018-05-09T04:22:49.192Z,4.33
2018-05-09T04:25:16.904Z,4.67
2018-05-09T04:27:44.496Z,4.80
2018-05-09T04:30:12.040Z,4.63
2018-05-09T04:32:39.603Z,4.80
2018-05-09T04:35:07.148Z,4.93
2018-05-09T04:37:34.713Z,4.37
2018-05-09T04:40:02.247Z,5.03
2018-05-09T04:42:30.584Z,4.87
2018-05-09T04:44:58.135Z,4.80
2018-05-09T04:47:25.770Z,5.30
2018-05-09T04:49:54.077Z,4.77
2018-05-09T04:52:21.627Z,5.20
2018-05-09T04:54:49.213Z,5.10
2018-05-09T04:57:16.792Z,5.00
2018-05-09T04:59:45.123Z,5.13
2018-05-09T05:02:12.748Z,4.70
2018-05-09T05:04:41.081Z,5.00
2018-05-09T05:07:08.636Z,4.53
2018-05-09T05:09:36.215Z,5.27
2018-05-09T05:12:03.769Z,5.33
2018-05-09T05:14:31.324Z,5.20
2018-05-09T05:16:58.876Z,5.53
2018-05-09T05:19:26.590Z,5.33
2018-05-09T05:21:54.135Z,5.00
2018-05-09T05:24:22.448Z,5.53
2018-05-09T05:26:50.008Z,5.70
2018-05-09T05:29:17.672Z,4.80
2018-05-09T05:31:45.212Z,5.17
2018-05-09T05:34:12.777Z,4.83
2018-05-09T05:36:40.329Z,5.20
2018-05-09T05:39:08.639Z,5.10
2018-05-09T05:41:36.208Z,5.27
2018-05-09T05:44:03.763Z,5.27
2018-05-09T05:46:31.324Z,4.70
2018-05-09T05:48:58.911Z,4.47
2018-05-09T05:51:26.480Z,3.93
2018-05-09T05:53:54.792Z,4.27
2018-05-09T05:56:22.368Z,4.00
2018-05-09T05:58:49.925Z,4.50
2018-05-09T06:01:17.501Z,4.18
2018-05-09T06:03:45.057Z,4.50
2018-05-09T06:06:12.796Z,4.60
2018-05-09T06:08:40.350Z,4.93
2018-05-09T06:11:07.959Z,3.87
2018-05-09T06:13:35.634Z,4.03
2018-05-09T06:16:03.986Z,4.82
2018-05-09T06:18:31.565Z,4.10
2018-05-09T06:20:59.146Z,4.32
2018-05-09T06:23:26.804Z,4.20
2018-05-09T06:25:55.159Z,3.90
2018-05-09T06:28:22.745Z,4.15
2018-05-09T06:30:51.075Z,3.85
2018-05-09T06:33:18.652Z,4.37
2018-05-09T06:35:46.185Z,4.03
2018-05-09T06:38:13.740Z,4.35
2018-05-09T06:40:41.316Z,4.30
2018-05-09T06:43:08.884Z,4.10
2018-05-09T06:45:36.474Z,4.80
2018-05-09T06:48:04.064Z,4.40
2018-05-09T06:50:31.638Z,4.50
2018-05-09T06:52:59.239Z,4.30
2018-05-09T06:55:26.951Z,4.40
2018-05-09T06:57:55.291Z,4.30
2018-05-09T07:00:22.853Z,4.27
2018-05-09T07:02:50.403Z,4.47
2018-05-09T07:05:18.027Z,3.93
2018-05-09T07:07:45.560Z,4.10
2018-05-09T07:10:13.887Z,4.23
2018-05-09T07:12:41.547Z,4.40
2018-05-09T07:15:09.027Z,3.93
2018-05-09T07:17:36.576Z,3.50
2018-05-09T07:20:04.169Z,3.70
2018-05-09T07:22:32.489Z,3.50
2018-05-09T07:25:00.075Z,3.63
2018-05-09T07:27:27.668Z,3.70
2018-05-09T07:29:55.231Z,3.50
2018-05-09T07:32:23.563Z,4.13
2018-05-09T07:34:51.102Z,3.70
2018-05-09T07:37:18.660Z,3.97
2018-05-09T07:39:46.209Z,3.90
2018-05-09T07:42:13.812Z,4.37
2018-05-09T07:44:41.341Z,3.43
2018-05-09T07:47:08.916Z,3.47
2018-05-09T07:49:36.470Z,3.87
2018-05-09T07:52:04.031Z,4.00
2018-05-09T07:54:31.608Z,3.70
2018-05-09T07:56:59.180Z,3.53
2018-05-09T07:59:26.760Z,4.00
2018-05-09T08:01:54.316Z,3.93
2018-05-09T08:04:21.888Z,3.70
2018-05-09T08:06:50.204Z,3.83
2018-05-09T08:09:17.772Z,3.53
2018-05-09T08:11:45.337Z,3.80
2018-05-09T08:14:13.709Z,3.57
2018-05-09T08:16:41.271Z,3.90
2018-05-09T08:19:08.898Z,3.50
2018-05-09T08:21:37.211Z,3.50
2018-05-09T08:24:04.771Z,3.90
2018-05-09T08:26:32.344Z,3.90
2018-05-09T08:28:59.896Z,3.70
2018-05-09T08:31:27.500Z,4.10
2018-05-09T08:33:55.818Z,3.80
2018-05-09T08:36:23.375Z,3.43
2018-05-09T08:38:50.933Z,3.53
2018-05-09T08:41:18.524Z,3.70
2018-05-09T08:43:46.093Z,3.50
2018-05-09T08:46:13.645Z,3.50
2018-05-09T08:48:41.279Z,3.70
2018-05-09T08:51:08.839Z,3.80
2018-05-09T08:53:36.383Z,3.57
2018-05-09T08:56:04.063Z,3.70
2018-05-09T08:58:31.632Z,4.03
2018-05-09T09:00:59.211Z,3.70
2018-05-09T09:03:26.764Z,3.70
2018-05-09T09:05:54.344Z,3.67
2018-05-09T09:08:21.945Z,3.40
2018-05-09T09:10:49.678Z,3.70
2018-05-09T09:13:17.315Z,3.80
2018-05-09T09:15:44.889Z,3.67
2018-05-09T09:18:12.432Z,3.50
2018-05-09T09:20:39.981Z,4.00
2018-05-09T09:23:07.549Z,3.77
2018-05-09T09:25:35.103Z,3.93
2018-05-09T09:28:02.693Z,3.90
2018-05-09T09:30:30.252Z,3.67
2018-05-09T09:32:57.807Z,4.03
2018-05-09T09:35:25.365Z,3.90
2018-05-09T09:37:52.938Z,3.90
2018-05-09T09:40:20.480Z,3.97
2018-05-09T09:42:48.113Z,3.80
2018-05-09T09:45:15.651Z,3.63
2018-05-09T09:47:43.240Z,4.03
2018-05-09T09:50:10.794Z,3.40
2018-05-09T09:52:38.376Z,3.53
2018-05-09T09:55:05.956Z,3.97
2018-05-09T09:57:33.663Z,4.27
2018-05-09T10:00:01.257Z,3.70
2018-05-09T10:02:28.816Z,3.83
2018-05-09T10:04:56.387Z,4.07
2018-05-09T10:07:23.936Z,3.87
2018-05-09T10:09:51.495Z,3.73
2018-05-09T10:12:19.052Z,3.80
2018-05-09T10:14:46.612Z,3.73
2018-05-09T10:17:14.208Z,4.27
2018-05-09T10:19:41.854Z,3.93
2018-05-09T10:22:09.568Z,3.93
2018-05-09T10:24:37.137Z,3.90
2018-05-09T10:27:04.711Z,3.80
2018-05-09T10:29:32.432Z,3.53
2018-05-09T10:32:00.807Z,3.97
2018-05-09T10:34:29.168Z,3.95
2018-05-09T10:36:56.747Z,3.90
2018-05-09T10:39:25.075Z,3.67
2018-05-09T10:41:52.647Z,3.72
2018-05-09T10:44:20.199Z,3.50
2018-05-09T10:46:47.765Z,3.30
2018-05-09T10:49:15.411Z,3.63
2018-05-09T10:51:42.983Z,3.80
2018-05-09T10:54:10.611Z,3.90
2018-05-09T10:56:38.330Z,3.50
2018-05-09T10:59:05.975Z,3.40
2018-05-09T11:01:33.529Z,3.60
2018-05-09T11:04:01.217Z,3.70
2018-05-09T11:06:28.796Z,3.80
2018-05-09T11:08:57.133Z,3.50
2018-05-09T11:11:24.689Z,3.70
2018-05-09T11:13:52.332Z,3.70
2018-05-09T11:16:19.960Z,3.70
2018-05-09T11:18:48.281Z,3.67
2018-05-09T11:21:15.852Z,3.78
2018-05-09T11:23:43.402Z,3.20
2018-05-09T11:26:10.991Z,3.60
2018-05-09T11:28:38.552Z,3.42
2018-05-09T11:31:06.118Z,3.65
2018-05-09T11:33:33.685Z,3.50
2018-05-09T11:36:01.264Z,3.45
2018-05-09T11:38:29.605Z,3.47
2018-05-09T11:40:57.159Z,2.90
2018-05-09T11:43:24.768Z,2.92
2018-05-09T11:45:53.113Z,3.37
2018-05-09T11:48:20.679Z,3.03
2018-05-09T11:50:48.342Z,3.25
2018-05-09T11:53:16.004Z,3.10
2018-05-09T11:55:44.243Z,3.20
2018-05-09T11:58:11.851Z,2.80
2018-05-09T12:00:40.264Z,3.35
2018-05-09T12:03:07.849Z,2.92
2018-05-09T12:05:36.499Z,3.20
2018-05-09T12:08:04.089Z,2.70
2018-05-09T12:10:31.733Z,2.53
2018-05-09T12:12:59.337Z,3.05
2018-05-09T12:15:27.085Z,2.83
2018-05-09T12:17:54.653Z,3.20
2018-05-09T12:20:22.222Z,2.90
2018-05-09T12:22:49.797Z,3.05
2018-05-09T12:25:17.392Z,3.17
2018-05-09T12:27:44.968Z,3.20
2018-05-09T12:30:12.521Z,3.20
2018-05-09T12:32:40.077Z,3.30
2018-05-09T12:35:07.657Z,3.67
2018-05-09T12:37:35.243Z,3.40
2018-05-09T12:40:02.813Z,3.67
2018-05-09T12:42:30.376Z,3.40
2018-05-09T12:44:57.966Z,3.25
2018-05-09T12:47:26.308Z,3.15
2018-05-09T12:49:54.131Z,3.47
2018-05-09T12:52:21.734Z,3.70
2018-05-09T12:54:49.320Z,3.45
2018-05-09T12:57:17.661Z,3.28
2018-05-09T12:59:45.240Z,3.42
2018-05-09T13:02:13.316Z,2.75
2018-05-09T13:04:40.903Z,3.28
2018-05-09T13:07:08.491Z,3.40
2018-05-09T13:09:36.089Z,3.62
2018-05-09T13:12:03.990Z,3.65
2018-05-09T13:14:32.327Z,3.20
2018-05-09T13:17:00.735Z,3.35
2018-05-09T13:19:29.057Z,3.45
2018-05-09T13:21:56.671Z,3.70
2018-05-09T13:24:24.237Z,3.50
2018-05-09T13:26:52.741Z,3.45
2018-05-09T13:29:20.396Z,3.35
2018-05-09T13:31:48.031Z,3.50
2018-05-09T13:34:15.588Z,3.45
2018-05-09T13:36:43.191Z,3.47
2018-05-09T13:39:10.809Z,3.55
2018-05-09T13:41:38.385Z,3.22
2018-05-09T13:44:06.776Z,3.28
2018-05-09T13:46:34.416Z,3.62
2018-05-09T13:49:01.981Z,5.00
2018-05-09T13:51:30.325Z,9.48
2018-05-09T13:53:57.972Z,3.72
2018-05-09T13:56:26.247Z,3.33
2018-05-09T13:58:53.850Z,3.50
2018-05-09T14:01:21.403Z,3.58
2018-05-09T14:03:49.082Z,3.80
2018-05-09T14:06:16.656Z,3.40
2018-05-09T14:08:44.284Z,4.30
2018-05-09T14:11:11.904Z,4.03
2018-05-09T14:13:39.465Z,3.25
2018-05-09T14:16:07.233Z,3.50
2018-05-09T14:18:34.795Z,3.45
2018-05-09T14:21:02.374Z,3.55
2018-05-09T14:23:30.009Z,3.22
2018-05-09T14:25:57.604Z,3.60
2018-05-09T14:28:25.183Z,3.75
2018-05-09T14:30:52.768Z,3.28
2018-05-09T14:33:21.173Z,3.90
2018-05-09T14:35:48.788Z,4.00
2018-05-09T14:38:17.852Z,4.25
2018-05-09T14:40:45.540Z,3.70
2018-05-09T14:43:13.895Z,3.60
2018-05-09T14:45:41.479Z,3.62
2018-05-09T14:48:09.060Z,3.72
2018-05-09T14:50:37.374Z,3.72
2018-05-09T14:53:04.972Z,3.87
2018-05-09T14:55:32.549Z,3.62
2018-05-09T14:58:00.900Z,3.70
2018-05-09T15:00:28.455Z,3.40
2018-05-09T15:02:56.036Z,3.85
2018-05-09T15:05:23.647Z,3.75
2018-05-09T15:07:51.220Z,3.42
2018-05-09T15:10:18.890Z,3.65
2018-05-09T15:12:46.510Z,3.87
2018-05-09T15:15:14.869Z,3.33
2018-05-09T15:17:42.688Z,3.33
2018-05-09T15:20:10.307Z,3.60
2018-05-09T15:22:38.649Z,3.72
2018-05-09T15:25:06.372Z,3.53
2018-05-09T15:27:33.919Z,3.60
2018-05-09T15:30:01.617Z,3.70
2018-05-09T15:32:29.183Z,3.47
2018-05-09T15:34:56.736Z,3.90
2018-05-09T15:37:24.300Z,3.80
2018-05-09T15:39:51.871Z,3.65
2018-05-09T15:42:19.428Z,3.95
2018-05-09T15:44:47.023Z,4.28
2018-05-09T15:47:14.575Z,3.70
2018-05-09T15:49:42.193Z,4.00
2018-05-09T15:52:09.744Z,3.60
2018-05-09T15:54:37.315Z,3.35
2018-05-09T15:57:04.888Z,3.62
2018-05-09T15:59:32.468Z,3.67
2018-05-09T16:02:00.067Z,4.32
2018-05-09T16:04:28.420Z,3.40
2018-05-09T16:06:56.025Z,3.60
2018-05-09T16:09:23.626Z,4.05
2018-05-09T16:11:51.192Z,3.87
2018-05-09T16:14:18.763Z,3.78
2018-05-09T16:16:46.467Z,3.58
2018-05-09T16:19:14.136Z,3.62
2018-05-09T16:21:41.695Z,3.65
2018-05-09T16:24:09.358Z,3.95
2018-05-09T16:26:36.915Z,3.83
2018-05-09T16:29:04.452Z,3.37
2018-05-09T16:31:32.024Z,3.65
2018-05-09T16:33:59.667Z,3.80
2018-05-09T16:36:27.996Z,3.80
2018-05-09T16:38:55.560Z,3.60
2018-05-09T16:41:23.181Z,3.22
2018-05-09T16:43:51.579Z,3.58
2018-05-09T16:46:19.152Z,3.75
2018-05-09T16:48:46.727Z,3.40
2018-05-09T16:51:14.312Z,3.67
2018-05-09T16:53:42.665Z,3.50
2018-05-09T16:56:10.263Z,3.80
2018-05-09T16:58:37.820Z,3.85
2018-05-09T17:01:06.197Z,3.70
2018-05-09T17:03:34.556Z,3.75
2018-05-09T17:06:02.264Z,4.15
2018-05-09T17:08:29.846Z,4.10
2018-05-09T17:10:57.537Z,4.32
2018-05-09T17:13:25.119Z,4.47
2018-05-09T17:15:53.448Z,3.83
2018-05-09T17:18:21.007Z,4.18
2018-05-09T17:20:48.574Z,3.97
2018-05-09T17:23:16.156Z,4.25
2018-05-09T17:25:43.728Z,4.22
2018-05-09T17:28:11.324Z,4.00
2018-05-09T17:30:38.975Z,4.05
2018-05-09T17:33:06.512Z,3.62
2018-05-09T17:35:34.103Z,3.97
2018-05-09T17:38:02.470Z,4.15
2018-05-09T17:40:30.840Z,4.20
2018-05-09T17:42:58.404Z,4.37
2018-05-09T17:45:26.885Z,3.83
2018-05-09T17:47:54.456Z,4.30
2018-05-09T17:50:22.789Z,4.60
2018-05-09T17:52:50.352Z,4.50
2018-05-09T17:55:17.924Z,4.13
2018-05-09T17:57:45.488Z,4.40
2018-05-09T18:00:13.092Z,4.62
2018-05-09T18:02:40.647Z,4.67
2018-05-09T18:05:08.224Z,4.20
2018-05-09T18:07:35.883Z,4.00
2018-05-09T18:10:03.442Z,4.27
2018-05-09T18:12:31.053Z,4.10
2018-05-09T18:14:58.580Z,3.77
2018-05-09T18:17:26.142Z,4.13
2018-05-09T18:19:53.722Z,5.80
2018-05-09T18:22:21.355Z,7.03
2018-05-09T18:24:48.958Z,6.00
2018-05-09T18:27:16.516Z,3.93
2018-05-09T18:29:44.078Z,4.63
2018-05-09T18:32:11.641Z,4.53
2018-05-09T18:34:39.194Z,4.00
2018-05-09T18:37:06.792Z,4.40
2018-05-09T18:39:34.365Z,5.43
2018-05-09T18:42:01.948Z,13.30
2018-05-09T18:44:29.523Z,9.67
2018-05-09T18:46:57.104Z,4.60
2018-05-09T18:49:24.672Z,6.37
2018-05-09T18:51:52.237Z,16.90
2018-05-09T18:54:20.623Z,12.90
2018-05-09T18:56:48.954Z,12.00
2018-05-09T18:59:16.512Z,12.37
2018-05-09T19:01:44.140Z,12.57
2018-05-09T19:04:11.718Z,49.60
2018-05-09T19:06:39.283Z,22.70
2018-05-09T19:09:06.871Z,13.47
2018-05-09T19:11:34.457Z,9.83
2018-05-09T19:14:02.814Z,6.17
2018-05-09T19:16:30.443Z,6.17
2018-05-09T19:18:58.051Z,7.40
2018-05-09T19:21:25.612Z,6.90
2018-05-09T19:23:53.255Z,5.87
2018-05-09T19:26:20.916Z,5.70
2018-05-09T19:28:48.537Z,5.50
2018-05-09T19:31:16.082Z,5.60
2018-05-09T19:33:43.667Z,4.70
2018-05-09T19:36:11.370Z,5.10
2018-05-09T19:38:39.752Z,5.00
2018-05-09T19:41:07.324Z,5.00
2018-05-09T19:43:35.664Z,5.20
2018-05-09T19:46:03.244Z,5.07
2018-05-09T19:48:30.829Z,5.70
2018-05-09T19:50:58.383Z,5.07
2018-05-09T19:53:25.957Z,5.73
2018-05-09T19:55:54.309Z,5.57
2018-05-09T19:58:21.920Z,5.00
2018-05-09T20:00:49.466Z,5.13
2018-05-09T20:03:17.145Z,5.10
2018-05-09T20:05:44.691Z,4.90
2018-05-09T20:08:12.253Z,5.80
2018-05-09T20:10:39.852Z,5.27
2018-05-09T20:13:07.472Z,5.83
2018-05-09T20:15:35.149Z,5.03
2018-05-09T20:18:02.699Z,5.73
2018-05-09T20:20:30.282Z,5.00
2018-05-09T20:22:57.907Z,4.90
2018-05-09T20:25:26.244Z,5.20
2018-05-09T20:27:54.612Z,5.13
2018-05-09T20:30:27.704Z,5.03
2018-05-09T20:32:55.251Z,5.97
2018-05-09T20:35:22.842Z,4.73
2018-05-09T20:37:50.410Z,5.30
2018-05-09T20:40:17.985Z,5.63
2018-05-09T20:42:46.324Z,5.93
2018-05-09T20:45:13.907Z,5.87
2018-05-09T20:47:42.273Z,5.83
2018-05-09T20:50:09.828Z,5.17
2018-05-09T20:52:37.390Z,5.27
2018-05-09T20:55:16.865Z,5.30
2018-05-09T20:57:45.412Z,5.47
2018-05-09T21:00:13.009Z,5.37
2018-05-09T21:02:41.378Z,6.07
2018-05-09T21:05:09.737Z,5.47
2018-05-09T21:07:49.055Z,5.83
2018-05-09T21:10:16.655Z,6.63
2018-05-09T21:12:44.990Z,6.20
2018-05-09T21:15:12.743Z,6.57
2018-05-09T21:17:40.398Z,6.67
2018-05-09T21:20:07.960Z,7.10
2018-05-09T21:22:35.568Z,7.40
2018-05-09T21:25:03.239Z,7.50
2018-05-09T21:27:31.602Z,8.77
2018-05-09T21:29:59.175Z,8.30
2018-05-09T21:32:26.776Z,10.07
2018-05-09T21:34:54.436Z,10.30
2018-05-09T21:37:22.034Z,11.27
2018-05-09T21:39:49.635Z,11.47
2018-05-09T21:42:17.995Z,14.77
2018-05-09T21:44:45.585Z,15.13
2018-05-09T21:47:13.175Z,17.53
2018-05-09T21:49:40.772Z,18.50
2018-05-09T21:52:08.367Z,22.20
2018-05-09T21:54:35.952Z,23.40
2018-05-09T21:57:03.513Z,22.47
2018-05-09T21:59:31.099Z,20.53
2018-05-09T22:01:58.675Z,17.90
2018-05-09T22:04:26.248Z,18.10
2018-05-09T22:06:54.576Z,19.13
2018-05-09T22:09:22.261Z,17.73
2018-05-09T22:11:49.847Z,20.57
2018-05-09T22:14:18.185Z,20.00
2018-05-09T22:16:45.764Z,21.17
2018-05-09T22:19:13.589Z,21.60
2018-05-09T22:21:41.160Z,23.33
2018-05-09T22:24:08.745Z,20.23
2018-05-09T22:26:36.365Z,21.87
2018-05-09T22:29:03.974Z,23.40
2018-05-09T22:31:31.628Z,23.03
2018-05-09T22:33:59.184Z,22.87
2018-05-09T22:36:26.747Z,20.80
2018-05-09T22:38:54.323Z,22.60
2018-05-09T22:41:22.661Z,24.47
2018-05-09T22:43:50.211Z,22.23
2018-05-09T22:46:17.779Z,24.13
2018-05-09T22:48:45.347Z,24.37
2018-05-09T22:51:12.909Z,23.20
2018-05-09T22:53:40.472Z,23.20
2018-05-09T22:56:08.148Z,23.13
2018-05-09T22:58:35.807Z,23.47
2018-05-09T23:01:03.455Z,23.37
2018-05-09T23:03:31.012Z,21.77
2018-05-09T23:05:58.624Z,22.53
2018-05-09T23:08:26.964Z,22.33
2018-05-09T23:10:54.530Z,22.93
2018-05-09T23:13:22.100Z,23.33
2018-05-09T23:15:49.712Z,23.63
2018-05-09T23:18:17.292Z,22.27
2018-05-09T23:20:44.872Z,23.53
2018-05-09T23:23:12.439Z,22.80
2018-05-09T23:25:40.016Z,22.33
2018-05-09T23:28:07.591Z,22.27
2018-05-09T23:30:35.993Z,20.83
2018-05-09T23:33:03.568Z,21.87
2018-05-09T23:35:31.127Z,21.40
2018-05-09T23:37:58.727Z,21.90
2018-05-09T23:40:26.296Z,21.60
2018-05-09T23:42:53.883Z,24.70
2018-05-09T23:45:21.455Z,22.17
2018-05-09T23:47:49.076Z,25.23
2018-05-09T23:50:16.640Z,25.53
2018-05-09T23:52:44.206Z,26.03
2018-05-09T23:55:12.560Z,26.23
2018-05-09T23:57:40.168Z,26.53
